createdAt,value
2022-11-10T00:00:31.557Z,97230.94
2022-11-10T00:03:02.209Z,97236.03
2022-11-10T00:05:28.690Z,97245.72
2022-11-10T00:07:55.119Z,97249.38
2022-11-10T00:10:21.566Z,97247.38
2022-11-10T00:12:48.058Z,97256.25
2022-11-10T00:15:33.159Z,97260.84
2022-11-10T00:18:01.435Z,97262.03
2022-11-10T00:20:27.846Z,97267.13
2022-11-10T00:22:54.937Z,97277.31
2022-11-10T00:25:21.616Z,97282.13
2022-11-10T00:27:48.054Z,97282.66
2022-11-10T00:30:14.600Z,97288.09
2022-11-10T00:32:41.058Z,97277.75
2022-11-10T00:35:07.785Z,97290.56
2022-11-10T00:37:34.282Z,97284.34
2022-11-10T00:40:00.695Z,97291.25
2022-11-10T00:42:27.137Z,97289.28
2022-11-10T00:44:53.553Z,97294.38
2022-11-10T00:47:19.964Z,97294.88
2022-11-10T00:49:46.397Z,97306.81
2022-11-10T00:52:12.860Z,97301.59
2022-11-10T00:54:39.279Z,97307.88
2022-11-10T00:57:05.735Z,97303.59
2022-11-10T00:59:32.154Z,97306.53
2022-11-10T01:01:58.588Z,97316.91
2022-11-10T01:04:24.990Z,97308.19
2022-11-10T01:06:52.872Z,97310.88
2022-11-10T01:09:19.409Z,97318.13
2022-11-10T01:11:45.821Z,97324.53
2022-11-10T01:14:12.238Z,97320.56
2022-11-10T01:16:38.687Z,97328.41
2022-11-10T01:19:05.234Z,97317.06
2022-11-10T01:21:32.102Z,97328.66
2022-11-10T01:23:58.587Z,97325.53
2022-11-10T01:26:25.230Z,97328.50
2022-11-10T01:28:51.681Z,97326.53
2022-11-10T01:31:19.095Z,97329.63
2022-11-10T01:33:45.618Z,97319.28
2022-11-10T01:36:12.449Z,97320.94
2022-11-10T01:38:39.704Z,97327.31
2022-11-10T01:41:06.857Z,97325.22
2022-11-10T01:43:33.323Z,97328.66
2022-11-10T01:46:06.898Z,97333.44
2022-11-10T01:49:05.892Z,97329.34
2022-11-10T01:51:34.820Z,97336.09
2022-11-10T01:54:02.203Z,97352.22
2022-11-10T01:56:28.935Z,97354.03
2022-11-10T01:58:57.019Z,97353.84
2022-11-10T02:01:23.551Z,97351.56
2022-11-10T02:03:50.020Z,97348.25
2022-11-10T02:06:16.760Z,97344.97
2022-11-10T02:08:43.317Z,97356.31
2022-11-10T02:11:09.893Z,97358.78
2022-11-10T02:13:36.344Z,97339.53
2022-11-10T02:16:02.753Z,97352.38
2022-11-10T02:18:29.184Z,97356.50
2022-11-10T02:20:55.621Z,97362.69
2022-11-10T02:23:31.466Z,97365.34
2022-11-10T02:25:58.023Z,97368.81
2022-11-10T02:28:24.676Z,97368.00
2022-11-10T02:30:51.165Z,97379.16
2022-11-10T02:33:17.919Z,97380.81
2022-11-10T02:35:47.632Z,97378.47
2022-11-10T02:38:14.338Z,97387.72
2022-11-10T02:40:40.769Z,97381.97
2022-11-10T02:43:07.583Z,97388.22
2022-11-10T02:45:33.985Z,97387.72
2022-11-10T02:48:00.405Z,97386.06
2022-11-10T02:50:26.842Z,97383.44
2022-11-10T02:52:53.251Z,97394.63
2022-11-10T02:55:19.662Z,97393.31
2022-11-10T02:57:46.044Z,97398.75
2022-11-10T03:00:12.802Z,97405.47
2022-11-10T03:02:39.202Z,97392.63
2022-11-10T03:05:05.685Z,97391.66
2022-11-10T03:07:32.094Z,97400.88
2022-11-10T03:09:58.522Z,97411.72
2022-11-10T03:12:24.920Z,97404.81
2022-11-10T03:14:51.351Z,97411.09
2022-11-10T03:17:17.784Z,97417.63
2022-11-10T03:19:44.237Z,97415.66
2022-11-10T03:22:10.639Z,97412.38
2022-11-10T03:24:37.081Z,97418.28
2022-11-10T03:27:03.497Z,97430.28
2022-11-10T03:29:29.946Z,97448.06
2022-11-10T03:31:57.076Z,97444.59
2022-11-10T03:34:26.019Z,97438.84
2022-11-10T03:36:54.543Z,97444.41
2022-11-10T03:39:21.013Z,97437.84
2022-11-10T03:41:47.422Z,97420.59
2022-11-10T03:44:13.845Z,97425.19
2022-11-10T03:46:43.370Z,97430.47
2022-11-10T03:49:10.045Z,97429.94
2022-11-10T03:51:36.566Z,97428.66
2022-11-10T03:54:03.120Z,97433.91
2022-11-10T03:56:29.557Z,97439.34
2022-11-10T03:58:55.970Z,97437.03
2022-11-10T04:01:23.830Z,97439.66
2022-11-10T04:03:51.670Z,97448.22
2022-11-10T04:06:36.905Z,97453.63
2022-11-10T04:09:03.900Z,97459.91
2022-11-10T04:11:49.694Z,97467.63
2022-11-10T04:14:34.735Z,97472.06
2022-11-10T04:17:01.411Z,97470.91
2022-11-10T04:19:28.125Z,97473.53
2022-11-10T04:21:54.765Z,97482.44
2022-11-10T04:24:21.233Z,97489.50
2022-11-10T04:26:48.683Z,97485.56
2022-11-10T04:29:16.392Z,97501.19
2022-11-10T04:31:43.413Z,97499.53
2022-11-10T04:34:11.555Z,97515.34
2022-11-10T04:36:38.585Z,97504.97
2022-11-10T04:39:05.305Z,97507.75
2022-11-10T04:41:31.890Z,97516.00
2022-11-10T04:43:58.811Z,97508.75
2022-11-10T04:46:28.435Z,97516.97
2022-11-10T04:48:55.115Z,97525.88
2022-11-10T04:51:22.443Z,97529.50
2022-11-10T04:53:48.930Z,97531.13
2022-11-10T04:56:16.072Z,97536.06
2022-11-10T04:58:42.633Z,97531.13
2022-11-10T05:01:13.031Z,97536.53
2022-11-10T05:03:39.528Z,97542.16
2022-11-10T05:06:06.034Z,97533.44
2022-11-10T05:08:32.532Z,97544.44
2022-11-10T05:10:58.948Z,97555.47
2022-11-10T05:13:25.496Z,97552.84
2022-11-10T05:15:52.430Z,97574.72
2022-11-10T05:18:18.815Z,97574.88
2022-11-10T05:20:45.267Z,97579.81
2022-11-10T05:23:30.565Z,97571.59
2022-11-10T05:25:57.010Z,97570.28
2022-11-10T05:28:23.457Z,97568.97
2022-11-10T05:30:49.892Z,97575.88
2022-11-10T05:33:16.310Z,97581.16
2022-11-10T05:35:42.745Z,97571.94
2022-11-10T05:38:09.198Z,97585.44
2022-11-10T05:40:35.660Z,97583.09
2022-11-10T05:43:02.199Z,97591.84
2022-11-10T05:45:28.969Z,97598.91
2022-11-10T05:47:55.554Z,97600.88
2022-11-10T05:50:22.306Z,97600.38
2022-11-10T05:52:50.473Z,97607.13
2022-11-10T05:55:18.014Z,97611.75
2022-11-10T05:57:48.511Z,97614.53
2022-11-10T06:00:15.679Z,97621.09
2022-11-10T06:02:42.189Z,97618.97
2022-11-10T06:05:08.744Z,97623.91
2022-11-10T06:07:35.346Z,97628.53
2022-11-10T06:10:01.962Z,97621.44
2022-11-10T06:12:31.365Z,97631.97
2022-11-10T06:15:00.859Z,97633.56
2022-11-10T06:17:27.304Z,97641.28
2022-11-10T06:19:53.751Z,97653.50
2022-11-10T06:22:20.167Z,97655.84
2022-11-10T06:24:46.988Z,97658.88
2022-11-10T06:27:13.601Z,97662.34
2022-11-10T06:29:40.058Z,97669.28
2022-11-10T06:32:06.458Z,97680.09
2022-11-10T06:34:32.951Z,97681.47
2022-11-10T06:36:59.366Z,97679.19
2022-11-10T06:39:25.774Z,97686.09
2022-11-10T06:41:52.164Z,97693.81
2022-11-10T06:44:18.720Z,97698.28
2022-11-10T06:46:45.105Z,97701.41
2022-11-10T06:49:11.538Z,97700.56
2022-11-10T06:51:37.980Z,97703.63
2022-11-10T06:54:04.484Z,97705.75
2022-11-10T06:56:30.892Z,97709.03
2022-11-10T06:58:57.315Z,97711.97
2022-11-10T07:01:26.701Z,97714.91
2022-11-10T07:04:18.068Z,97720.66
2022-11-10T07:06:40.030Z,97716.22
2022-11-10T07:09:06.548Z,97731.69
2022-11-10T07:11:32.992Z,97728.25
2022-11-10T07:13:59.428Z,97732.56
2022-11-10T07:16:25.807Z,97727.81
2022-11-10T07:18:52.221Z,97735.22
2022-11-10T07:21:18.619Z,97744.00
2022-11-10T07:23:46.847Z,97746.63
2022-11-10T07:26:13.297Z,97749.28
2022-11-10T07:28:39.743Z,97747.16
2022-11-10T07:31:06.153Z,97750.94
2022-11-10T07:33:32.587Z,97744.88
2022-11-10T07:35:59.804Z,97761.81
2022-11-10T07:38:26.249Z,97762.47
2022-11-10T07:40:53.231Z,97757.22
2022-11-10T07:43:20.873Z,97772.50
2022-11-10T07:45:47.572Z,97771.19
2022-11-10T07:48:14.411Z,97770.38
2022-11-10T07:50:40.817Z,97777.28
2022-11-10T07:53:08.305Z,97776.31
2022-11-10T07:55:35.067Z,97781.25
2022-11-10T07:58:01.503Z,97785.22
2022-11-10T08:00:27.971Z,97791.44
2022-11-10T08:02:54.378Z,97784.72
2022-11-10T08:05:21.148Z,97784.72
2022-11-10T08:07:47.748Z,97800.69
2022-11-10T08:10:14.306Z,97798.22
2022-11-10T08:12:40.687Z,97807.28
2022-11-10T08:15:07.545Z,97813.56
2022-11-10T08:17:33.983Z,97813.41
2022-11-10T08:20:00.432Z,97818.22
2022-11-10T08:22:26.880Z,97825.44
2022-11-10T08:24:53.320Z,97820.38
2022-11-10T08:27:19.882Z,97832.22
2022-11-10T08:29:46.347Z,97840.28
2022-11-10T08:32:12.749Z,97834.19
2022-11-10T08:34:39.212Z,97836.66
2022-11-10T08:37:05.610Z,97837.31
2022-11-10T08:39:39.020Z,97847.53
2022-11-10T08:42:06.462Z,97852.81
2022-11-10T08:44:32.901Z,97862.69
2022-11-10T08:46:59.303Z,97863.03
2022-11-10T08:49:25.737Z,97869.47
2022-11-10T08:51:52.151Z,97872.25
2022-11-10T08:54:18.635Z,97868.47
2022-11-10T08:56:45.045Z,97875.22
2022-11-10T08:59:11.531Z,97872.91
2022-11-10T09:01:37.939Z,97877.19
2022-11-10T09:04:04.387Z,97883.13
2022-11-10T09:06:30.992Z,97888.41
2022-11-10T09:08:57.485Z,97882.44
2022-11-10T09:11:23.888Z,97898.94
2022-11-10T09:13:50.315Z,97893.38
2022-11-10T09:16:16.729Z,97900.44
2022-11-10T09:18:43.195Z,97915.28
2022-11-10T09:21:11.915Z,97917.88
2022-11-10T09:23:38.411Z,97911.66
2022-11-10T09:26:07.819Z,97917.28
2022-11-10T09:28:34.225Z,97924.66
2022-11-10T09:31:00.605Z,97932.59
2022-11-10T09:33:27.186Z,97937.38
2022-11-10T09:35:56.719Z,97930.44
2022-11-10T09:38:23.398Z,97934.06
2022-11-10T09:40:56.075Z,97935.03
2022-11-10T09:43:48.843Z,97935.88
2022-11-10T09:46:25.047Z,97930.59
2022-11-10T09:48:52.530Z,97929.91
2022-11-10T09:51:26.132Z,97930.31
2022-11-10T09:53:56.601Z,97933.41
2022-11-10T09:56:26.406Z,97937.94
2022-11-10T09:58:52.901Z,97948.94
2022-11-10T10:01:22.418Z,97950.00
2022-11-10T10:03:50.376Z,97951.47
2022-11-10T10:06:16.822Z,97952.59
2022-11-10T10:08:46.273Z,97955.81
2022-11-10T10:11:35.987Z,97960.91
2022-11-10T10:14:21.273Z,97960.44
2022-11-10T10:17:06.475Z,97955.00
2022-11-10T10:19:44.103Z,97950.69
2022-11-10T10:22:13.932Z,97947.53
2022-11-10T10:24:40.346Z,97979.06
2022-11-10T10:27:08.758Z,97977.81
2022-11-10T10:29:40.019Z,97972.78
2022-11-10T10:32:09.420Z,97972.84
2022-11-10T10:34:35.906Z,97967.81
2022-11-10T10:37:02.366Z,97972.97
2022-11-10T10:39:33.498Z,97972.88
2022-11-10T10:41:59.941Z,97974.41
2022-11-10T10:44:26.368Z,97971.91
2022-11-10T10:46:56.940Z,97960.56
2022-11-10T10:49:29.143Z,97966.66
2022-11-10T10:52:13.406Z,97967.69
2022-11-10T10:54:40.191Z,97974.31
2022-11-10T10:57:06.629Z,97966.75
2022-11-10T10:59:33.132Z,97980.75
2022-11-10T11:01:59.593Z,97974.09
2022-11-10T11:04:26.061Z,97964.75
2022-11-10T11:07:00.159Z,97959.91
2022-11-10T11:09:30.659Z,97956.91
2022-11-10T11:12:03.350Z,97962.44
2022-11-10T11:14:30.188Z,97969.44
2022-11-10T11:16:59.662Z,97959.81
2022-11-10T11:19:35.675Z,97966.25
2022-11-10T11:22:13.793Z,97964.34
2022-11-10T11:24:46.280Z,97979.00
2022-11-10T11:27:21.319Z,97964.63
2022-11-10T11:29:54.727Z,97973.06
2022-11-10T11:32:26.066Z,97975.91
2022-11-10T11:35:11.327Z,97985.94
2022-11-10T11:37:40.847Z,97982.22
2022-11-10T11:40:25.980Z,97994.84
2022-11-10T11:42:52.435Z,97997.69
2022-11-10T11:45:24.904Z,98008.06
2022-11-10T11:48:10.111Z,98008.97
2022-11-10T11:50:41.438Z,98010.97
2022-11-10T11:53:15.857Z,98010.00
2022-11-10T11:56:04.086Z,98016.31
2022-11-10T11:58:30.501Z,98031.66
2022-11-10T12:01:15.653Z,98019.88
2022-11-10T12:03:53.794Z,98015.53
2022-11-10T12:06:20.197Z,98025.09
2022-11-10T12:09:04.672Z,98019.22
2022-11-10T12:11:35.239Z,98030.06
2022-11-10T12:14:20.663Z,98022.13
2022-11-10T12:17:07.407Z,98014.31
2022-11-10T12:19:34.694Z,98029.53
2022-11-10T12:22:01.086Z,98022.97
2022-11-10T12:24:27.520Z,98030.34
2022-11-10T12:26:54.063Z,98020.03
2022-11-10T12:29:32.776Z,98022.72
2022-11-10T12:32:02.588Z,98033.78
2022-11-10T12:34:31.091Z,98036.50
2022-11-10T12:36:57.976Z,98033.66
2022-11-10T12:39:29.313Z,98034.47
2022-11-10T12:41:59.596Z,98031.28
2022-11-10T12:44:36.491Z,98035.88
2022-11-10T12:47:03.429Z,98032.91
2022-11-10T12:49:33.872Z,98022.97
2022-11-10T12:52:06.376Z,98025.50
2022-11-10T12:54:33.846Z,98027.63
2022-11-10T12:57:03.180Z,98027.63
2022-11-10T12:59:29.581Z,98031.81
2022-11-10T13:02:01.625Z,98035.13
2022-11-10T13:04:28.038Z,98047.63
2022-11-10T13:07:08.820Z,98057.69
2022-11-10T13:09:39.253Z,98042.03
2022-11-10T13:12:21.772Z,98039.06
2022-11-10T13:14:48.375Z,98047.81
2022-11-10T13:17:35.055Z,98042.94
2022-11-10T13:20:27.556Z,98039.44
2022-11-10T13:22:47.931Z,98045.56
2022-11-10T13:25:33.178Z,98047.59
2022-11-10T13:27:59.577Z,98048.78
2022-11-10T13:30:39.400Z,98048.13
2022-11-10T13:33:24.620Z,98069.25
2022-11-10T13:35:55.401Z,98067.44
2022-11-10T13:38:34.518Z,98074.22
2022-11-10T13:41:18.229Z,98072.25
2022-11-10T13:43:48.742Z,98081.09
2022-11-10T13:46:15.231Z,98080.91
2022-11-10T13:48:57.902Z,98074.34
2022-11-10T13:51:43.263Z,98084.50
2022-11-10T13:54:13.002Z,98093.81
2022-11-10T13:56:58.180Z,98082.00
2022-11-10T13:59:25.584Z,98082.53
2022-11-10T14:01:52.015Z,98077.19
2022-11-10T14:04:36.894Z,98077.34
2022-11-10T14:07:03.725Z,98094.22
2022-11-10T14:09:33.507Z,98097.13
2022-11-10T14:12:00.577Z,98097.31
2022-11-10T14:14:29.988Z,98090.72
2022-11-10T14:16:56.445Z,98083.31
2022-11-10T14:19:22.834Z,98092.03
2022-11-10T14:21:53.969Z,98099.34
2022-11-10T14:24:31.049Z,98090.47
2022-11-10T14:26:58.445Z,98101.94
2022-11-10T14:29:32.501Z,98092.88
2022-11-10T14:31:59.599Z,98089.28
2022-11-10T14:34:26.063Z,98099.84
2022-11-10T14:36:59.187Z,98090.00
2022-11-10T14:39:33.386Z,98092.66
2022-11-10T14:42:01.109Z,98099.91
2022-11-10T14:44:28.347Z,98096.13
2022-11-10T14:46:54.832Z,98094.28
2022-11-10T14:49:25.117Z,98090.19
2022-11-10T14:51:52.085Z,98086.38
2022-11-10T14:54:18.951Z,98080.44
2022-11-10T14:56:45.387Z,98083.25
2022-11-10T14:59:11.777Z,98087.03
2022-11-10T15:01:38.894Z,98083.75
2022-11-10T15:04:05.881Z,98079.63
2022-11-10T15:06:32.653Z,98078.09
2022-11-10T15:09:01.500Z,98079.06
2022-11-10T15:11:41.182Z,98084.03
2022-11-10T15:14:26.613Z,98078.72
2022-11-10T15:16:59.880Z,98083.28
2022-11-10T15:19:36.086Z,98087.25
2022-11-10T15:22:21.415Z,98097.91
2022-11-10T15:24:48.180Z,98090.53
2022-11-10T15:27:25.889Z,98094.31
2022-11-10T15:29:52.374Z,98091.47
2022-11-10T15:32:21.012Z,98096.06
2022-11-10T15:34:47.504Z,98089.44
2022-11-10T15:37:30.016Z,98095.84
2022-11-10T15:40:15.955Z,98097.97
2022-11-10T15:42:42.374Z,98101.25
2022-11-10T15:45:08.859Z,98103.34
2022-11-10T15:47:35.278Z,98100.50
2022-11-10T15:50:01.966Z,98113.88
2022-11-10T15:52:28.839Z,98118.97
2022-11-10T15:54:55.250Z,98119.28
2022-11-10T15:57:22.214Z,98112.28
2022-11-10T15:59:48.805Z,98118.34
2022-11-10T16:02:24.598Z,98131.13
2022-11-10T16:04:54.410Z,98122.66
2022-11-10T16:07:23.687Z,98117.03
2022-11-10T16:09:50.097Z,98120.72
2022-11-10T16:12:18.757Z,98125.66
2022-11-10T16:14:46.611Z,98131.66
2022-11-10T16:17:13.092Z,98133.63
2022-11-10T16:19:39.739Z,98127.97
2022-11-10T16:22:06.178Z,98139.19
2022-11-10T16:24:32.587Z,98135.16
2022-11-10T16:26:59.001Z,98137.72
2022-11-10T16:29:25.427Z,98142.13
2022-11-10T16:31:51.900Z,98146.69
2022-11-10T16:34:18.337Z,98150.97
2022-11-10T16:36:46.273Z,98158.78
2022-11-10T16:39:13.676Z,98164.97
2022-11-10T16:41:41.411Z,98159.31
2022-11-10T16:44:11.857Z,98167.97
2022-11-10T16:46:38.340Z,98170.75
2022-11-10T16:49:05.518Z,98182.13
2022-11-10T16:51:44.140Z,98174.75
2022-11-10T16:54:12.134Z,98172.72
2022-11-10T16:56:38.545Z,98180.94
2022-11-10T16:59:05.017Z,98186.19
2022-11-10T17:01:32.110Z,98194.50
2022-11-10T17:03:59.053Z,98199.53
2022-11-10T17:06:26.597Z,98198.38
2022-11-10T17:08:53.238Z,98210.16
2022-11-10T17:11:19.668Z,98214.38
2022-11-10T17:13:46.083Z,98211.88
2022-11-10T17:16:21.650Z,98221.59
2022-11-10T17:18:48.079Z,98230.47
2022-11-10T17:21:14.559Z,98220.25
2022-11-10T17:23:41.013Z,98212.22
2022-11-10T17:26:10.953Z,98220.72
2022-11-10T17:28:37.374Z,98230.28
2022-11-10T17:31:03.858Z,98227.19
2022-11-10T17:33:30.275Z,98233.06
2022-11-10T17:35:56.768Z,98225.31
2022-11-10T17:38:24.408Z,98225.31
2022-11-10T17:40:50.990Z,98227.00
2022-11-10T17:43:17.389Z,98219.38
2022-11-10T17:45:43.823Z,98219.50
2022-11-10T17:48:10.333Z,98223.66
2022-11-10T17:50:37.354Z,98224.91
2022-11-10T17:53:04.394Z,98236.13
2022-11-10T17:55:34.200Z,98245.28
2022-11-10T17:58:01.076Z,98240.34
2022-11-10T18:00:27.518Z,98246.88
2022-11-10T18:02:55.528Z,98242.16
2022-11-10T18:05:22.084Z,98254.34
2022-11-10T18:07:51.922Z,98252.38
2022-11-10T18:10:18.379Z,98252.00
2022-11-10T18:12:45.161Z,98255.88
2022-11-10T18:15:15.066Z,98261.38
2022-11-10T18:17:41.749Z,98265.00
2022-11-10T18:20:09.345Z,98268.59
2022-11-10T18:22:35.794Z,98273.16
2022-11-10T18:25:02.351Z,98287.53
2022-11-10T18:27:29.143Z,98301.63
2022-11-10T18:29:55.687Z,98289.91
2022-11-10T18:32:23.164Z,98286.84
2022-11-10T18:34:49.774Z,98290.72
2022-11-10T18:37:16.554Z,98285.47
2022-11-10T18:39:43.089Z,98286.03
2022-11-10T18:42:09.580Z,98283.81
2022-11-10T18:44:37.042Z,98280.09
2022-11-10T18:47:04.173Z,98268.91
2022-11-10T18:49:30.605Z,98272.91
2022-11-10T18:51:57.306Z,98274.25
2022-11-10T18:54:23.832Z,98265.41
2022-11-10T18:56:50.865Z,98266.38
2022-11-10T18:59:17.238Z,98264.72
2022-11-10T19:01:43.815Z,98260.72
2022-11-10T19:04:10.688Z,98262.66
2022-11-10T19:06:37.211Z,98265.44
2022-11-10T19:09:04.260Z,98270.69
2022-11-10T19:11:31.295Z,98270.97
2022-11-10T19:13:58.399Z,98265.03
2022-11-10T19:16:24.814Z,98272.22
2022-11-10T19:18:51.214Z,98276.63
2022-11-10T19:21:18.775Z,98280.22
2022-11-10T19:23:45.446Z,98279.81
2022-11-10T19:26:16.772Z,98274.84
2022-11-10T19:28:47.459Z,98278.69
2022-11-10T19:31:14.638Z,98278.84
2022-11-10T19:33:41.964Z,98280.50
2022-11-10T19:36:08.741Z,98295.69
2022-11-10T19:38:35.411Z,98299.28
2022-11-10T19:41:09.954Z,98299.94
2022-11-10T19:43:36.501Z,98300.63
2022-11-10T19:46:03.793Z,98305.59
2022-11-10T19:48:31.493Z,98308.22
2022-11-10T19:50:58.434Z,98309.19
2022-11-10T19:53:25.127Z,98309.94
2022-11-10T19:55:51.910Z,98315.03
2022-11-10T19:58:18.483Z,98305.88
2022-11-10T20:00:45.702Z,98312.56
2022-11-10T20:03:15.317Z,98318.34
2022-11-10T20:05:42.269Z,98321.53
2022-11-10T20:08:12.144Z,98326.91
2022-11-10T20:10:39.457Z,98326.50
2022-11-10T20:13:06.455Z,98317.53
2022-11-10T20:15:33.170Z,98315.03
2022-11-10T20:17:59.665Z,98306.19
2022-11-10T20:20:26.121Z,98299.56
2022-11-10T20:22:52.573Z,98310.47
2022-11-10T20:25:18.997Z,98305.50
2022-11-10T20:27:45.470Z,98305.09
2022-11-10T20:30:11.992Z,98307.31
2022-11-10T20:32:38.470Z,98304.91
2022-11-10T20:35:05.585Z,98304.78
2022-11-10T20:37:33.001Z,98304.91
2022-11-10T20:39:59.525Z,98313.47
2022-11-10T20:42:25.975Z,98312.56
2022-11-10T20:44:52.354Z,98305.88
2022-11-10T20:47:18.899Z,98313.06
2022-11-10T20:49:45.331Z,98307.00
2022-11-10T20:52:11.719Z,98314.72
2022-11-10T20:54:38.701Z,98319.16
2022-11-10T20:57:05.144Z,98330.88
2022-11-10T20:59:31.538Z,98323.53
2022-11-10T21:01:58.014Z,98323.13
2022-11-10T21:04:24.473Z,98308.19
2022-11-10T21:06:51.017Z,98307.28
2022-11-10T21:09:17.686Z,98305.56
2022-11-10T21:12:02.804Z,98309.88
2022-11-10T21:14:29.191Z,98314.41
2022-11-10T21:16:57.009Z,98315.25
2022-11-10T21:19:23.488Z,98315.38
2022-11-10T21:21:51.093Z,98310.13
2022-11-10T21:24:17.521Z,98305.03
2022-11-10T21:26:43.957Z,98307.78
2022-11-10T21:29:11.596Z,98313.84
2022-11-10T21:31:38.391Z,98324.22
2022-11-10T21:34:04.864Z,98326.84
2022-11-10T21:36:31.670Z,98341.47
2022-11-10T21:38:58.574Z,98346.44
2022-11-10T21:41:25.385Z,98339.38
2022-11-10T21:43:51.799Z,98346.03
2022-11-10T21:46:18.202Z,98347.69
2022-11-10T21:48:44.590Z,98352.81
2022-11-10T21:51:11.842Z,98358.59
2022-11-10T21:53:47.908Z,98353.91
2022-11-10T21:56:14.334Z,98361.63
2022-11-10T21:58:40.798Z,98357.34
2022-11-10T22:01:18.314Z,98345.06
2022-11-10T22:03:45.238Z,98341.47
2022-11-10T22:06:13.160Z,98340.09
2022-11-10T22:08:39.953Z,98343.56
2022-11-10T22:11:27.665Z,98346.88
2022-11-10T22:14:12.782Z,98350.66
2022-11-10T22:17:18.066Z,98355.25
2022-11-10T22:19:44.580Z,98354.25
2022-11-10T22:22:11.229Z,98348.00
2022-11-10T22:24:37.655Z,98344.00
2022-11-10T22:27:04.155Z,98344.00
2022-11-10T22:29:32.159Z,98345.78
2022-11-10T22:32:01.993Z,98355.06
2022-11-10T22:34:28.422Z,98358.19
2022-11-10T22:36:54.846Z,98360.69
2022-11-10T22:39:21.272Z,98359.47
2022-11-10T22:42:06.377Z,98374.41
2022-11-10T22:44:32.771Z,98376.69
2022-11-10T22:46:59.225Z,98372.16
2022-11-10T22:49:25.661Z,98368.13
2022-11-10T22:51:52.617Z,98362.34
2022-11-10T22:54:20.115Z,98376.56
2022-11-10T22:56:47.383Z,98380.41
2022-11-10T22:59:14.049Z,98371.31
2022-11-10T23:01:40.945Z,98370.13
2022-11-10T23:04:07.520Z,98379.66
2022-11-10T23:06:33.993Z,98386.22
2022-11-10T23:09:00.503Z,98378.16
2022-11-10T23:11:27.954Z,98376.75
2022-11-10T23:13:54.472Z,98393.44
2022-11-10T23:16:20.869Z,98385.06
2022-11-10T23:18:47.548Z,98394.63
2022-11-10T23:21:14.967Z,98372.94
2022-11-10T23:23:41.625Z,98371.03
2022-11-10T23:26:09.210Z,98379.78
2022-11-10T23:28:36.102Z,98385.31
2022-11-10T23:31:06.596Z,98394.41
2022-11-10T23:33:33.841Z,98400.94
2022-11-10T23:36:00.589Z,98403.09
2022-11-10T23:38:29.268Z,98380.94
2022-11-10T23:40:56.235Z,98382.03
2022-11-10T23:43:22.953Z,98374.63
2022-11-10T23:46:06.786Z,98376.31
2022-11-10T23:48:34.194Z,98382.38
2022-11-10T23:51:00.850Z,98383.34
2022-11-10T23:53:27.240Z,98383.06
2022-11-10T23:56:00.576Z,98380.06
2022-11-10T23:58:27.125Z,98366.53
